Terminal Aerodrome Forecast
Issued by NWS San Angelo, TX

Home | Current Version | Previous Version | Text Only | Print | Product List | Glossary On
Versions: 1 2 3 4 5 6 7 8 9 10 11 12 13 14 15 16 17
000
FTUS44 KSJT 252320
TAFSJT
TAF
KSJT 252320Z 2600/2624 17012G19KT P6SM BKN250
     FM260700 19013G19KT P6SM VCSH OVC250
     FM261800 19016G23KT P6SM OVC250 PROB30 2620/2622 P6SM TS
      BKN050CB=

USA.gov is the U.S. government's official web portal to all federal, state and local government web resources and services.